sensor_id;sensor_type;location;lat;lon;timestamp;P1;durP1;ratioP1;P2;durP2;ratioP2
65234;SDS011;51820;48.374;10.930;2023-08-21T00:02:09;15.40;;;6.43;;
65234;SDS011;51820;48.374;10.930;2023-08-21T00:04:37;10.85;;;5.90;;
65234;SDS011;51820;48.374;10.930;2023-08-21T00:07:08;10.23;;;5.80;;
65234;SDS011;51820;48.374;10.930;2023-08-21T00:09:39;11.02;;;6.07;;
65234;SDS011;51820;48.374;10.930;2023-08-21T00:12:07;9.93;;;6.10;;
65234;SDS011;51820;48.374;10.930;2023-08-21T00:14:36;8.93;;;5.73;;
65234;SDS011;51820;48.374;10.930;2023-08-21T00:17:05;11.15;;;6.00;;
65234;SDS011;51820;48.374;10.930;2023-08-21T00:19:36;9.15;;;6.38;;
65234;SDS011;51820;48.374;10.930;2023-08-21T00:22:09;13.02;;;6.35;;
65234;SDS011;51820;48.374;10.930;2023-08-21T00:24:38;9.57;;;5.85;;
65234;SDS011;51820;48.374;10.930;2023-08-21T00:27:07;11.70;;;6.03;;
65234;SDS011;51820;48.374;10.930;2023-08-21T00:29:35;10.35;;;6.28;;
65234;SDS011;51820;48.374;10.930;2023-08-21T00:32:04;9.35;;;6.00;;
65234;SDS011;51820;48.374;10.930;2023-08-21T00:34:33;11.40;;;6.30;;
65234;SDS011;51820;48.374;10.930;2023-08-21T00:37:02;12.55;;;6.82;;
65234;SDS011;51820;48.374;10.930;2023-08-21T00:39:31;10.20;;;6.20;;
65234;SDS011;51820;48.374;10.930;2023-08-21T00:42:00;14.55;;;6.88;;
65234;SDS011;51820;48.374;10.930;2023-08-21T00:44:29;11.00;;;6.32;;
65234;SDS011;51820;48.374;10.930;2023-08-21T00:46:58;12.07;;;6.78;;
65234;SDS011;51820;48.374;10.930;2023-08-21T00:49:31;13.48;;;6.85;;
65234;SDS011;51820;48.374;10.930;2023-08-21T00:52:01;11.43;;;6.23;;
65234;SDS011;51820;48.374;10.930;2023-08-21T00:54:39;10.82;;;5.95;;
65234;SDS011;51820;48.374;10.930;2023-08-21T00:57:17;10.55;;;6.47;;
65234;SDS011;51820;48.374;10.930;2023-08-21T00:59:46;10.10;;;6.80;;
65234;SDS011;51820;48.374;10.930;2023-08-21T01:02:15;10.43;;;6.63;;
65234;SDS011;51820;48.374;10.930;2023-08-21T01:04:45;9.30;;;6.23;;
65234;SDS011;51820;48.374;10.930;2023-08-21T01:07:14;10.77;;;6.60;;
65234;SDS011;51820;48.374;10.930;2023-08-21T01:09:43;13.02;;;6.85;;
65234;SDS011;51820;48.374;10.930;2023-08-21T01:12:19;11.00;;;6.18;;
65234;SDS011;51820;48.374;10.930;2023-08-21T01:14:54;10.65;;;6.65;;
65234;SDS011;51820;48.374;10.930;2023-08-21T01:17:29;10.23;;;6.40;;
65234;SDS011;51820;48.374;10.930;2023-08-21T01:19:58;11.35;;;6.28;;
65234;SDS011;51820;48.374;10.930;2023-08-21T01:22:27;13.52;;;7.15;;
65234;SDS011;51820;48.374;10.930;2023-08-21T01:24:57;11.05;;;6.88;;
65234;SDS011;51820;48.374;10.930;2023-08-21T01:27:25;10.35;;;6.55;;
65234;SDS011;51820;48.374;10.930;2023-08-21T01:29:54;13.03;;;6.80;;
65234;SDS011;51820;48.374;10.930;2023-08-21T01:32:23;11.18;;;6.63;;
65234;SDS011;51820;48.374;10.930;2023-08-21T01:35:04;12.35;;;6.93;;
65234;SDS011;51820;48.374;10.930;2023-08-21T01:37:34;12.25;;;7.07;;
65234;SDS011;51820;48.374;10.930;2023-08-21T01:40:06;14.63;;;6.88;;
65234;SDS011;51820;48.374;10.930;2023-08-21T01:42:35;13.50;;;6.87;;
65234;SDS011;51820;48.374;10.930;2023-08-21T01:45:04;11.48;;;7.20;;
65234;SDS011;51820;48.374;10.930;2023-08-21T01:47:33;11.77;;;7.47;;
65234;SDS011;51820;48.374;10.930;2023-08-21T01:50:02;12.98;;;7.88;;
65234;SDS011;51820;48.374;10.930;2023-08-21T01:52:30;16.92;;;7.80;;
65234;SDS011;51820;48.374;10.930;2023-08-21T01:55:00;14.10;;;7.10;;
65234;SDS011;51820;48.374;10.930;2023-08-21T01:57:31;12.85;;;7.80;;
65234;SDS011;51820;48.374;10.930;2023-08-21T02:00:00;12.80;;;7.70;;
65234;SDS011;51820;48.374;10.930;2023-08-21T02:02:39;12.55;;;7.65;;
65234;SDS011;51820;48.374;10.930;2023-08-21T02:05:08;11.63;;;7.35;;
65234;SDS011;51820;48.374;10.930;2023-08-21T02:07:38;12.47;;;7.23;;
65234;SDS011;51820;48.374;10.930;2023-08-21T02:10:07;13.07;;;7.88;;
65234;SDS011;51820;48.374;10.930;2023-08-21T02:12:43;11.02;;;7.25;;
65234;SDS011;51820;48.374;10.930;2023-08-21T02:15:15;13.82;;;8.57;;
65234;SDS011;51820;48.374;10.930;2023-08-21T02:17:52;13.43;;;7.72;;
65234;SDS011;51820;48.374;10.930;2023-08-21T02:20:21;13.00;;;7.43;;
65234;SDS011;51820;48.374;10.930;2023-08-21T02:22:50;13.25;;;7.50;;
65234;SDS011;51820;48.374;10.930;2023-08-21T02:25:18;12.45;;;7.38;;
65234;SDS011;51820;48.374;10.930;2023-08-21T02:27:48;12.82;;;7.38;;
65234;SDS011;51820;48.374;10.930;2023-08-21T02:30:17;12.55;;;7.72;;
65234;SDS011;51820;48.374;10.930;2023-08-21T02:32:46;12.63;;;7.30;;
65234;SDS011;51820;48.374;10.930;2023-08-21T02:35:15;13.98;;;7.85;;
65234;SDS011;51820;48.374;10.930;2023-08-21T02:37:44;11.98;;;7.75;;
65234;SDS011;51820;48.374;10.930;2023-08-21T02:40:12;14.18;;;7.53;;
65234;SDS011;51820;48.374;10.930;2023-08-21T02:42:41;11.80;;;7.25;;
65234;SDS011;51820;48.374;10.930;2023-08-21T02:45:11;14.03;;;6.90;;
65234;SDS011;51820;48.374;10.930;2023-08-21T02:47:39;12.50;;;7.85;;
65234;SDS011;51820;48.374;10.930;2023-08-21T02:50:09;11.10;;;6.93;;
65234;SDS011;51820;48.374;10.930;2023-08-21T02:52:37;11.85;;;7.30;;
65234;SDS011;51820;48.374;10.930;2023-08-21T02:55:07;11.55;;;7.10;;
65234;SDS011;51820;48.374;10.930;2023-08-21T02:57:36;10.03;;;6.47;;
65234;SDS011;51820;48.374;10.930;2023-08-21T03:00:05;11.60;;;7.43;;
65234;SDS011;51820;48.374;10.930;2023-08-21T03:02:36;11.48;;;7.47;;
65234;SDS011;51820;48.374;10.930;2023-08-21T03:05:05;12.30;;;7.22;;
65234;SDS011;51820;48.374;10.930;2023-08-21T03:07:35;13.32;;;7.22;;
65234;SDS011;51820;48.374;10.930;2023-08-21T03:10:04;11.93;;;7.00;;
65234;SDS011;51820;48.374;10.930;2023-08-21T03:12:33;15.20;;;7.07;;
65234;SDS011;51820;48.374;10.930;2023-08-21T03:15:02;11.43;;;7.43;;
65234;SDS011;51820;48.374;10.930;2023-08-21T03:17:31;12.65;;;6.90;;
65234;SDS011;51820;48.374;10.930;2023-08-21T03:20:01;14.55;;;7.95;;
65234;SDS011;51820;48.374;10.930;2023-08-21T03:22:31;12.47;;;7.23;;
65234;SDS011;51820;48.374;10.930;2023-08-21T03:24:59;11.10;;;6.90;;
65234;SDS011;51820;48.374;10.930;2023-08-21T03:27:28;11.32;;;7.47;;
65234;SDS011;51820;48.374;10.930;2023-08-21T03:29:57;10.48;;;7.18;;
65234;SDS011;51820;48.374;10.930;2023-08-21T03:32:28;12.63;;;7.10;;
65234;SDS011;51820;48.374;10.930;2023-08-21T03:34:56;15.47;;;6.70;;
65234;SDS011;51820;48.374;10.930;2023-08-21T03:37:26;10.38;;;6.95;;
65234;SDS011;51820;48.374;10.930;2023-08-21T03:39:55;9.77;;;6.38;;
65234;SDS011;51820;48.374;10.930;2023-08-21T03:42:24;16.00;;;7.00;;
65234;SDS011;51820;48.374;10.930;2023-08-21T03:44:53;12.52;;;6.90;;
65234;SDS011;51820;48.374;10.930;2023-08-21T03:47:21;10.90;;;7.27;;
65234;SDS011;51820;48.374;10.930;2023-08-21T03:49:57;12.77;;;7.22;;
65234;SDS011;51820;48.374;10.930;2023-08-21T03:52:28;12.43;;;6.88;;
65234;SDS011;51820;48.374;10.930;2023-08-21T03:54:56;21.98;;;7.55;;
65234;SDS011;51820;48.374;10.930;2023-08-21T03:57:27;10.00;;;6.43;;
65234;SDS011;51820;48.374;10.930;2023-08-21T03:59:55;11.00;;;6.80;;
65234;SDS011;51820;48.374;10.930;2023-08-21T04:02:24;12.00;;;6.65;;
65234;SDS011;51820;48.374;10.930;2023-08-21T04:04:52;10.95;;;7.13;;
65234;SDS011;51820;48.374;10.930;2023-08-21T04:07:22;12.25;;;7.15;;
65234;SDS011;51820;48.374;10.930;2023-08-21T04:09:52;12.02;;;7.28;;
65234;SDS011;51820;48.374;10.930;2023-08-21T04:12:20;11.00;;;6.90;;
65234;SDS011;51820;48.374;10.930;2023-08-21T04:14:48;13.15;;;6.63;;
65234;SDS011;51820;48.374;10.930;2023-08-21T04:17:20;15.32;;;7.28;;
65234;SDS011;51820;48.374;10.930;2023-08-21T04:19:49;11.20;;;7.32;;
65234;SDS011;51820;48.374;10.930;2023-08-21T04:22:17;11.40;;;7.30;;
65234;SDS011;51820;48.374;10.930;2023-08-21T04:24:46;10.80;;;6.93;;
65234;SDS011;51820;48.374;10.930;2023-08-21T04:27:16;15.43;;;6.85;;
65234;SDS011;51820;48.374;10.930;2023-08-21T04:29:44;12.45;;;7.63;;
65234;SDS011;51820;48.374;10.930;2023-08-21T04:32:13;14.23;;;6.88;;
65234;SDS011;51820;48.374;10.930;2023-08-21T04:34:41;13.55;;;7.28;;
65234;SDS011;51820;48.374;10.930;2023-08-21T04:37:12;14.13;;;7.20;;
65234;SDS011;51820;48.374;10.930;2023-08-21T04:39:40;12.48;;;6.82;;
65234;SDS011;51820;48.374;10.930;2023-08-21T04:42:09;18.35;;;7.60;;
65234;SDS011;51820;48.374;10.930;2023-08-21T04:44:39;14.00;;;7.13;;
65234;SDS011;51820;48.374;10.930;2023-08-21T04:47:19;14.38;;;7.20;;
65234;SDS011;51820;48.374;10.930;2023-08-21T04:49:50;13.00;;;7.50;;
65234;SDS011;51820;48.374;10.930;2023-08-21T04:52:18;11.27;;;6.28;;
65234;SDS011;51820;48.374;10.930;2023-08-21T04:54:47;13.73;;;6.88;;
65234;SDS011;51820;48.374;10.930;2023-08-21T04:57:16;15.63;;;7.15;;
65234;SDS011;51820;48.374;10.930;2023-08-21T04:59:46;10.52;;;6.63;;
65234;SDS011;51820;48.374;10.930;2023-08-21T05:02:14;10.80;;;7.30;;
65234;SDS011;51820;48.374;10.930;2023-08-21T05:04:43;14.13;;;7.07;;
65234;SDS011;51820;48.374;10.930;2023-08-21T05:07:12;16.33;;;7.20;;
65234;SDS011;51820;48.374;10.930;2023-08-21T05:09:40;14.85;;;7.18;;
65234;SDS011;51820;48.374;10.930;2023-08-21T05:12:11;13.52;;;7.15;;
65234;SDS011;51820;48.374;10.930;2023-08-21T05:14:40;13.03;;;7.33;;
65234;SDS011;51820;48.374;10.930;2023-08-21T05:17:10;15.00;;;7.18;;
65234;SDS011;51820;48.374;10.930;2023-08-21T05:19:38;14.15;;;7.50;;
65234;SDS011;51820;48.374;10.930;2023-08-21T05:22:06;14.05;;;8.35;;
65234;SDS011;51820;48.374;10.930;2023-08-21T05:24:35;12.45;;;7.75;;
65234;SDS011;51820;48.374;10.930;2023-08-21T05:27:05;12.57;;;6.97;;
65234;SDS011;51820;48.374;10.930;2023-08-21T05:29:34;15.35;;;7.00;;
65234;SDS011;51820;48.374;10.930;2023-08-21T05:32:02;12.73;;;7.85;;
65234;SDS011;51820;48.374;10.930;2023-08-21T05:34:32;15.73;;;7.85;;
65234;SDS011;51820;48.374;10.930;2023-08-21T05:37:00;11.88;;;7.30;;
65234;SDS011;51820;48.374;10.930;2023-08-21T05:39:30;13.77;;;7.20;;
65234;SDS011;51820;48.374;10.930;2023-08-21T05:41:58;12.90;;;6.93;;
65234;SDS011;51820;48.374;10.930;2023-08-21T05:44:27;13.88;;;7.85;;
65234;SDS011;51820;48.374;10.930;2023-08-21T05:46:57;15.43;;;7.82;;
65234;SDS011;51820;48.374;10.930;2023-08-21T05:49:25;15.55;;;7.75;;
65234;SDS011;51820;48.374;10.930;2023-08-21T05:51:55;14.43;;;7.47;;
65234;SDS011;51820;48.374;10.930;2023-08-21T05:54:25;11.32;;;7.10;;
65234;SDS011;51820;48.374;10.930;2023-08-21T05:56:55;11.40;;;6.95;;
65234;SDS011;51820;48.374;10.930;2023-08-21T05:59:27;14.75;;;7.07;;
65234;SDS011;51820;48.374;10.930;2023-08-21T06:01:59;24.05;;;15.15;;
65234;SDS011;51820;48.374;10.930;2023-08-21T06:04:28;23.60;;;14.33;;
65234;SDS011;51820;48.374;10.930;2023-08-21T06:07:02;23.98;;;15.32;;
65234;SDS011;51820;48.374;10.930;2023-08-21T06:09:30;15.65;;;9.23;;
65234;SDS011;51820;48.374;10.930;2023-08-21T06:12:00;14.00;;;8.10;;
65234;SDS011;51820;48.374;10.930;2023-08-21T06:14:29;16.17;;;7.22;;
65234;SDS011;51820;48.374;10.930;2023-08-21T06:17:00;12.23;;;6.97;;
65234;SDS011;51820;48.374;10.930;2023-08-21T06:19:30;15.43;;;7.60;;
65234;SDS011;51820;48.374;10.930;2023-08-21T06:21:59;14.68;;;7.45;;
65234;SDS011;51820;48.374;10.930;2023-08-21T06:24:29;12.30;;;7.70;;
65234;SDS011;51820;48.374;10.930;2023-08-21T06:27:01;18.02;;;7.40;;
65234;SDS011;51820;48.374;10.930;2023-08-21T06:29:33;15.53;;;7.93;;
65234;SDS011;51820;48.374;10.930;2023-08-21T06:32:04;14.35;;;7.47;;
65234;SDS011;51820;48.374;10.930;2023-08-21T06:34:32;13.25;;;7.32;;
65234;SDS011;51820;48.374;10.930;2023-08-21T06:37:01;14.48;;;7.93;;
65234;SDS011;51820;48.374;10.930;2023-08-21T06:39:31;14.45;;;7.97;;
65234;SDS011;51820;48.374;10.930;2023-08-21T06:42:01;14.67;;;8.07;;
65234;SDS011;51820;48.374;10.930;2023-08-21T06:44:37;16.10;;;8.40;;
65234;SDS011;51820;48.374;10.930;2023-08-21T06:47:06;15.98;;;8.18;;
65234;SDS011;51820;48.374;10.930;2023-08-21T06:49:36;13.23;;;8.00;;
65234;SDS011;51820;48.374;10.930;2023-08-21T06:52:05;14.98;;;8.63;;
65234;SDS011;51820;48.374;10.930;2023-08-21T06:54:35;16.40;;;9.73;;
65234;SDS011;51820;48.374;10.930;2023-08-21T06:57:03;14.48;;;8.30;;
65234;SDS011;51820;48.374;10.930;2023-08-21T06:59:32;22.20;;;8.98;;
65234;SDS011;51820;48.374;10.930;2023-08-21T07:02:02;15.52;;;8.40;;
65234;SDS011;51820;48.374;10.930;2023-08-21T07:04:30;18.33;;;8.25;;
65234;SDS011;51820;48.374;10.930;2023-08-21T07:07:00;12.77;;;7.67;;
65234;SDS011;51820;48.374;10.930;2023-08-21T07:09:28;14.60;;;8.02;;
65234;SDS011;51820;48.374;10.930;2023-08-21T07:11:58;13.38;;;8.77;;
65234;SDS011;51820;48.374;10.930;2023-08-21T07:14:28;16.15;;;8.57;;
65234;SDS011;51820;48.374;10.930;2023-08-21T07:16:57;13.65;;;8.13;;
65234;SDS011;51820;48.374;10.930;2023-08-21T07:19:25;14.63;;;8.27;;
65234;SDS011;51820;48.374;10.930;2023-08-21T07:21:54;13.02;;;8.10;;
65234;SDS011;51820;48.374;10.930;2023-08-21T07:24:22;12.85;;;8.55;;
65234;SDS011;51820;48.374;10.930;2023-08-21T07:26:51;13.50;;;8.70;;
65234;SDS011;51820;48.374;10.930;2023-08-21T07:29:21;13.57;;;8.88;;
65234;SDS011;51820;48.374;10.930;2023-08-21T07:31:49;17.80;;;8.90;;
65234;SDS011;51820;48.374;10.930;2023-08-21T07:34:18;15.30;;;8.65;;
65234;SDS011;51820;48.374;10.930;2023-08-21T07:36:46;14.75;;;9.20;;
65234;SDS011;51820;48.374;10.930;2023-08-21T07:39:15;15.45;;;8.73;;
65234;SDS011;51820;48.374;10.930;2023-08-21T07:41:43;16.73;;;8.65;;
65234;SDS011;51820;48.374;10.930;2023-08-21T07:44:12;13.70;;;8.70;;
65234;SDS011;51820;48.374;10.930;2023-08-21T07:46:42;14.18;;;8.00;;
65234;SDS011;51820;48.374;10.930;2023-08-21T07:49:10;14.57;;;7.97;;
65234;SDS011;51820;48.374;10.930;2023-08-21T07:51:38;13.27;;;8.40;;
65234;SDS011;51820;48.374;10.930;2023-08-21T07:54:08;12.95;;;7.80;;
65234;SDS011;51820;48.374;10.930;2023-08-21T07:56:37;14.87;;;7.93;;
65234;SDS011;51820;48.374;10.930;2023-08-21T07:59:07;18.35;;;7.75;;
65234;SDS011;51820;48.374;10.930;2023-08-21T08:01:36;16.80;;;7.85;;
65234;SDS011;51820;48.374;10.930;2023-08-21T08:04:06;14.82;;;7.75;;
65234;SDS011;51820;48.374;10.930;2023-08-21T08:06:35;16.05;;;7.70;;
65234;SDS011;51820;48.374;10.930;2023-08-21T08:09:03;13.23;;;7.20;;
65234;SDS011;51820;48.374;10.930;2023-08-21T08:11:32;14.48;;;7.85;;
65234;SDS011;51820;48.374;10.930;2023-08-21T08:14:03;12.55;;;8.05;;
65234;SDS011;51820;48.374;10.930;2023-08-21T08:16:31;11.07;;;7.63;;
65234;SDS011;51820;48.374;10.930;2023-08-21T08:19:00;20.10;;;7.97;;
65234;SDS011;51820;48.374;10.930;2023-08-21T08:21:30;15.37;;;8.23;;
65234;SDS011;51820;48.374;10.930;2023-08-21T08:23:58;15.18;;;8.40;;
65234;SDS011;51820;48.374;10.930;2023-08-21T08:26:27;14.35;;;8.13;;
65234;SDS011;51820;48.374;10.930;2023-08-21T08:28:56;12.65;;;8.07;;
65234;SDS011;51820;48.374;10.930;2023-08-21T08:31:24;13.20;;;8.00;;
65234;SDS011;51820;48.374;10.930;2023-08-21T08:33:54;15.97;;;8.40;;
65234;SDS011;51820;48.374;10.930;2023-08-21T08:36:22;15.45;;;8.30;;
65234;SDS011;51820;48.374;10.930;2023-08-21T08:38:52;15.85;;;8.77;;
65234;SDS011;51820;48.374;10.930;2023-08-21T08:41:24;13.75;;;7.93;;
65234;SDS011;51820;48.374;10.930;2023-08-21T08:43:55;13.95;;;8.10;;
65234;SDS011;51820;48.374;10.930;2023-08-21T08:46:25;15.03;;;8.17;;
65234;SDS011;51820;48.374;10.930;2023-08-21T08:48:56;12.88;;;8.38;;
65234;SDS011;51820;48.374;10.930;2023-08-21T08:51:27;15.52;;;7.45;;
65234;SDS011;51820;48.374;10.930;2023-08-21T08:53:59;14.35;;;8.00;;
65234;SDS011;51820;48.374;10.930;2023-08-21T08:56:28;15.20;;;8.05;;
65234;SDS011;51820;48.374;10.930;2023-08-21T08:58:57;12.90;;;7.13;;
65234;SDS011;51820;48.374;10.930;2023-08-21T09:01:25;13.63;;;6.70;;
65234;SDS011;51820;48.374;10.930;2023-08-21T09:03:54;13.15;;;7.10;;
65234;SDS011;51820;48.374;10.930;2023-08-21T09:06:22;10.95;;;7.30;;
65234;SDS011;51820;48.374;10.930;2023-08-21T09:08:54;14.50;;;6.50;;
65234;SDS011;51820;48.374;10.930;2023-08-21T09:11:24;12.60;;;7.37;;
65234;SDS011;51820;48.374;10.930;2023-08-21T09:13:52;11.52;;;6.90;;
65234;SDS011;51820;48.374;10.930;2023-08-21T09:16:23;15.13;;;6.50;;
65234;SDS011;51820;48.374;10.930;2023-08-21T09:18:53;13.75;;;6.50;;
65234;SDS011;51820;48.374;10.930;2023-08-21T09:21:23;10.10;;;6.47;;
65234;SDS011;51820;48.374;10.930;2023-08-21T09:23:56;11.20;;;6.70;;
65234;SDS011;51820;48.374;10.930;2023-08-21T09:26:27;11.40;;;6.35;;
65234;SDS011;51820;48.374;10.930;2023-08-21T09:28:58;12.38;;;6.90;;
65234;SDS011;51820;48.374;10.930;2023-08-21T09:31:29;9.73;;;6.13;;
65234;SDS011;51820;48.374;10.930;2023-08-21T09:33:59;9.48;;;6.43;;
65234;SDS011;51820;48.374;10.930;2023-08-21T09:36:31;14.20;;;6.63;;
65234;SDS011;51820;48.374;10.930;2023-08-21T09:39:00;12.98;;;6.60;;
65234;SDS011;51820;48.374;10.930;2023-08-21T09:41:30;13.32;;;6.80;;
65234;SDS011;51820;48.374;10.930;2023-08-21T09:43:58;13.18;;;6.70;;
65234;SDS011;51820;48.374;10.930;2023-08-21T09:46:27;11.85;;;6.68;;
65234;SDS011;51820;48.374;10.930;2023-08-21T09:48:55;13.73;;;6.63;;
65234;SDS011;51820;48.374;10.930;2023-08-21T09:51:23;24.95;;;7.53;;
65234;SDS011;51820;48.374;10.930;2023-08-21T09:53:53;12.02;;;6.95;;
65234;SDS011;51820;48.374;10.930;2023-08-21T09:56:23;12.05;;;7.00;;
65234;SDS011;51820;48.374;10.930;2023-08-21T09:58:53;11.05;;;7.32;;
65234;SDS011;51820;48.374;10.930;2023-08-21T10:01:21;10.40;;;6.47;;
65234;SDS011;51820;48.374;10.930;2023-08-21T10:03:51;11.57;;;6.97;;
65234;SDS011;51820;48.374;10.930;2023-08-21T10:06:23;10.70;;;6.63;;
65234;SDS011;51820;48.374;10.930;2023-08-21T10:08:53;13.77;;;7.30;;
65234;SDS011;51820;48.374;10.930;2023-08-21T10:11:22;10.55;;;7.25;;
65234;SDS011;51820;48.374;10.930;2023-08-21T10:13:51;11.80;;;6.53;;
65234;SDS011;51820;48.374;10.930;2023-08-21T10:16:20;14.48;;;7.10;;
65234;SDS011;51820;48.374;10.930;2023-08-21T10:18:49;11.50;;;7.22;;
65234;SDS011;51820;48.374;10.930;2023-08-21T10:21:18;16.77;;;7.00;;
65234;SDS011;51820;48.374;10.930;2023-08-21T10:23:48;14.98;;;7.20;;
65234;SDS011;51820;48.374;10.930;2023-08-21T10:26:18;12.27;;;6.97;;
65234;SDS011;51820;48.374;10.930;2023-08-21T10:28:48;12.27;;;7.20;;
65234;SDS011;51820;48.374;10.930;2023-08-21T10:31:28;13.82;;;7.28;;
65234;SDS011;51820;48.374;10.930;2023-08-21T10:33:59;13.68;;;6.50;;
65234;SDS011;51820;48.374;10.930;2023-08-21T10:36:38;12.32;;;7.07;;
65234;SDS011;51820;48.374;10.930;2023-08-21T10:39:12;10.83;;;6.67;;
65234;SDS011;51820;48.374;10.930;2023-08-21T10:41:41;13.57;;;6.70;;
65234;SDS011;51820;48.374;10.930;2023-08-21T10:44:09;10.80;;;6.47;;
65234;SDS011;51820;48.374;10.930;2023-08-21T10:46:52;14.88;;;6.93;;
65234;SDS011;51820;48.374;10.930;2023-08-21T10:49:20;10.43;;;6.55;;
65234;SDS011;51820;48.374;10.930;2023-08-21T10:51:49;12.67;;;7.00;;
65234;SDS011;51820;48.374;10.930;2023-08-21T10:54:18;11.27;;;6.75;;
65234;SDS011;51820;48.374;10.930;2023-08-21T10:56:46;16.27;;;7.40;;
65234;SDS011;51820;48.374;10.930;2023-08-21T10:59:14;15.25;;;6.47;;
65234;SDS011;51820;48.374;10.930;2023-08-21T11:01:43;19.17;;;7.43;;
65234;SDS011;51820;48.374;10.930;2023-08-21T11:04:13;17.57;;;6.57;;
65234;SDS011;51820;48.374;10.930;2023-08-21T11:06:41;19.13;;;7.57;;
65234;SDS011;51820;48.374;10.930;2023-08-21T11:09:12;17.77;;;7.20;;
65234;SDS011;51820;48.374;10.930;2023-08-21T11:11:40;18.40;;;6.47;;
65234;SDS011;51820;48.374;10.930;2023-08-21T11:14:10;14.88;;;6.93;;
65234;SDS011;51820;48.374;10.930;2023-08-21T11:16:39;14.77;;;6.13;;
65234;SDS011;51820;48.374;10.930;2023-08-21T11:19:08;14.15;;;6.63;;
65234;SDS011;51820;48.374;10.930;2023-08-21T11:21:37;17.13;;;7.10;;
65234;SDS011;51820;48.374;10.930;2023-08-21T11:24:06;15.38;;;8.68;;
65234;SDS011;51820;48.374;10.930;2023-08-21T11:26:34;14.00;;;8.88;;
65234;SDS011;51820;48.374;10.930;2023-08-21T11:29:03;18.30;;;8.13;;
65234;SDS011;51820;48.374;10.930;2023-08-21T11:31:33;14.95;;;7.00;;
65234;SDS011;51820;48.374;10.930;2023-08-21T11:34:01;13.98;;;6.97;;
65234;SDS011;51820;48.374;10.930;2023-08-21T11:36:50;12.43;;;6.88;;
65234;SDS011;51820;48.374;10.930;2023-08-21T11:39:18;13.75;;;6.65;;
65234;SDS011;51820;48.374;10.930;2023-08-21T11:41:53;12.63;;;7.17;;
65234;SDS011;51820;48.374;10.930;2023-08-21T11:44:22;12.13;;;6.57;;
65234;SDS011;51820;48.374;10.930;2023-08-21T11:46:50;14.20;;;7.00;;
65234;SDS011;51820;48.374;10.930;2023-08-21T11:49:19;10.35;;;6.20;;
65234;SDS011;51820;48.374;10.930;2023-08-21T11:51:50;11.82;;;6.78;;
65234;SDS011;51820;48.374;10.930;2023-08-21T11:54:18;10.63;;;5.97;;
65234;SDS011;51820;48.374;10.930;2023-08-21T11:56:46;11.23;;;6.40;;
65234;SDS011;51820;48.374;10.930;2023-08-21T11:59:21;9.55;;;6.45;;
65234;SDS011;51820;48.374;10.930;2023-08-21T12:01:50;9.25;;;5.75;;
65234;SDS011;51820;48.374;10.930;2023-08-21T12:04:18;10.60;;;6.65;;
65234;SDS011;51820;48.374;10.930;2023-08-21T12:06:46;11.23;;;6.00;;
65234;SDS011;51820;48.374;10.930;2023-08-21T12:09:16;9.65;;;5.70;;
65234;SDS011;51820;48.374;10.930;2023-08-21T12:11:45;10.43;;;6.40;;
65234;SDS011;51820;48.374;10.930;2023-08-21T12:14:13;10.52;;;6.22;;
65234;SDS011;51820;48.374;10.930;2023-08-21T12:16:46;12.82;;;6.10;;
65234;SDS011;51820;48.374;10.930;2023-08-21T12:19:14;8.73;;;5.83;;
65234;SDS011;51820;48.374;10.930;2023-08-21T12:21:43;13.05;;;5.20;;
65234;SDS011;51820;48.374;10.930;2023-08-21T12:24:13;9.57;;;5.75;;
65234;SDS011;51820;48.374;10.930;2023-08-21T12:26:42;10.25;;;5.38;;
65234;SDS011;51820;48.374;10.930;2023-08-21T12:29:16;11.40;;;5.53;;
65234;SDS011;51820;48.374;10.930;2023-08-21T12:31:45;9.53;;;5.67;;
65234;SDS011;51820;48.374;10.930;2023-08-21T12:34:14;15.45;;;5.55;;
65234;SDS011;51820;48.374;10.930;2023-08-21T12:36:42;9.07;;;5.50;;
65234;SDS011;51820;48.374;10.930;2023-08-21T12:39:11;11.40;;;5.25;;
65234;SDS011;51820;48.374;10.930;2023-08-21T12:41:40;10.32;;;4.60;;
65234;SDS011;51820;48.374;10.930;2023-08-21T12:44:10;9.70;;;4.77;;
65234;SDS011;51820;48.374;10.930;2023-08-21T12:46:39;10.40;;;4.72;;
65234;SDS011;51820;48.374;10.930;2023-08-21T12:49:08;8.88;;;4.90;;
65234;SDS011;51820;48.374;10.930;2023-08-21T12:51:36;13.48;;;5.25;;
65234;SDS011;51820;48.374;10.930;2023-08-21T12:54:05;9.75;;;5.53;;
65234;SDS011;51820;48.374;10.930;2023-08-21T12:56:52;10.67;;;5.40;;
65234;SDS011;51820;48.374;10.930;2023-08-21T12:59:31;10.05;;;4.97;;
65234;SDS011;51820;48.374;10.930;2023-08-21T13:02:03;9.73;;;4.70;;
65234;SDS011;51820;48.374;10.930;2023-08-21T13:04:32;8.95;;;5.70;;
65234;SDS011;51820;48.374;10.930;2023-08-21T13:07:28;10.88;;;5.30;;
65234;SDS011;51820;48.374;10.930;2023-08-21T13:09:57;15.53;;;6.13;;
65234;SDS011;51820;48.374;10.930;2023-08-21T13:15:19;10.23;;;5.22;;
65234;SDS011;51820;48.374;10.930;2023-08-21T13:17:47;10.02;;;5.00;;
65234;SDS011;51820;48.374;10.930;2023-08-21T13:20:29;10.13;;;5.63;;
65234;SDS011;51820;48.374;10.930;2023-08-21T13:22:57;7.73;;;4.93;;
65234;SDS011;51820;48.374;10.930;2023-08-21T13:25:29;9.95;;;5.55;;
65234;SDS011;51820;48.374;10.930;2023-08-21T13:28:03;10.43;;;5.70;;
65234;SDS011;51820;48.374;10.930;2023-08-21T13:30:38;12.30;;;5.13;;
65234;SDS011;51820;48.374;10.930;2023-08-21T13:33:07;9.50;;;5.03;;
65234;SDS011;51820;48.374;10.930;2023-08-21T13:35:35;10.03;;;4.87;;
65234;SDS011;51820;48.374;10.930;2023-08-21T13:38:04;9.40;;;4.35;;
65234;SDS011;51820;48.374;10.930;2023-08-21T13:40:37;10.32;;;4.40;;
65234;SDS011;51820;48.374;10.930;2023-08-21T13:43:06;14.50;;;4.70;;
65234;SDS011;51820;48.374;10.930;2023-08-21T13:45:38;10.57;;;4.80;;
65234;SDS011;51820;48.374;10.930;2023-08-21T13:48:07;9.27;;;4.83;;
65234;SDS011;51820;48.374;10.930;2023-08-21T13:50:35;11.57;;;4.88;;
65234;SDS011;51820;48.374;10.930;2023-08-21T13:53:04;10.18;;;5.05;;
65234;SDS011;51820;48.374;10.930;2023-08-21T13:55:36;11.63;;;4.75;;
65234;SDS011;51820;48.374;10.930;2023-08-21T13:58:06;8.05;;;4.70;;
65234;SDS011;51820;48.374;10.930;2023-08-21T14:00:34;9.10;;;5.10;;
65234;SDS011;51820;48.374;10.930;2023-08-21T14:03:09;8.43;;;5.22;;
65234;SDS011;51820;48.374;10.930;2023-08-21T14:05:37;8.57;;;5.03;;
65234;SDS011;51820;48.374;10.930;2023-08-21T14:08:05;10.55;;;4.47;;
65234;SDS011;51820;48.374;10.930;2023-08-21T14:10:37;9.10;;;4.85;;
65234;SDS011;51820;48.374;10.930;2023-08-21T14:13:06;9.53;;;5.50;;
65234;SDS011;51820;48.374;10.930;2023-08-21T14:15:35;8.65;;;4.43;;
65234;SDS011;51820;48.374;10.930;2023-08-21T14:18:05;11.63;;;4.97;;
65234;SDS011;51820;48.374;10.930;2023-08-21T14:20:34;11.25;;;5.85;;
65234;SDS011;51820;48.374;10.930;2023-08-21T14:23:02;11.15;;;5.40;;
65234;SDS011;51820;48.374;10.930;2023-08-21T14:25:31;9.73;;;5.23;;
65234;SDS011;51820;48.374;10.930;2023-08-21T14:27:59;13.02;;;5.10;;
65234;SDS011;51820;48.374;10.930;2023-08-21T14:30:28;11.50;;;5.07;;
65234;SDS011;51820;48.374;10.930;2023-08-21T14:32:56;11.15;;;5.13;;
65234;SDS011;51820;48.374;10.930;2023-08-21T14:35:26;10.52;;;5.68;;
65234;SDS011;51820;48.374;10.930;2023-08-21T14:37:54;9.97;;;5.00;;
65234;SDS011;51820;48.374;10.930;2023-08-21T14:40:23;14.07;;;5.00;;
65234;SDS011;51820;48.374;10.930;2023-08-21T14:42:52;9.65;;;5.18;;